createdAt,value
2024-02-14T00:01:30.245Z,4.73
2024-02-14T00:06:37.749Z,3.50
2024-02-14T00:11:43.157Z,4.83
2024-02-14T00:16:46.617Z,4.90
2024-02-14T00:22:26.561Z,4.57
2024-02-14T00:29:05.714Z,5.00
2024-02-14T00:34:11.434Z,3.20
2024-02-14T00:39:14.950Z,5.07
2024-02-14T00:44:20.299Z,3.80
2024-02-14T00:49:29.566Z,5.40
2024-02-14T00:54:47.175Z,4.17
2024-02-14T00:59:59.497Z,3.63
2024-02-14T01:11:50.711Z,4.53
2024-02-14T01:17:19.108Z,6.23
2024-02-14T01:22:29.779Z,5.03
2024-02-14T01:27:32.925Z,6.33
2024-02-14T01:32:36.227Z,4.73
2024-02-14T01:37:39.613Z,4.47
2024-02-14T01:42:43.461Z,5.57
2024-02-14T01:47:47.183Z,5.07
2024-02-14T01:52:50.412Z,5.70
2024-02-14T01:57:54.537Z,6.07
2024-02-14T02:02:58.898Z,5.37
2024-02-14T02:08:02.661Z,5.67
2024-02-14T02:13:06.229Z,5.03
2024-02-14T02:18:24.982Z,4.83
2024-02-14T02:24:26.307Z,4.93
2024-02-14T02:30:50.197Z,7.73
2024-02-14T02:44:09.559Z,5.43
2024-02-14T02:49:15.456Z,5.03
2024-02-14T02:54:18.743Z,5.13
2024-02-14T02:59:23.404Z,4.43
2024-02-14T03:04:41.226Z,5.30
2024-02-14T03:09:50.444Z,6.60
2024-02-14T03:22:08.017Z,6.50
2024-02-14T03:27:11.233Z,5.10
2024-02-14T03:32:14.861Z,3.30
2024-02-14T03:37:18.883Z,3.53
2024-02-14T03:42:22.133Z,3.23
2024-02-14T03:47:25.904Z,4.13
2024-02-14T03:52:29.089Z,4.23
2024-02-14T03:57:32.159Z,5.63
2024-02-14T04:02:37.517Z,4.60
2024-02-14T04:07:45.820Z,3.43
2024-02-14T04:12:49.122Z,4.37
2024-02-14T04:17:52.286Z,5.00
2024-02-14T04:22:55.336Z,9.33
2024-02-14T04:27:58.064Z,11.03
2024-02-14T04:33:01.718Z,7.97
2024-02-14T04:38:04.707Z,7.57
2024-02-14T04:43:07.491Z,6.53
2024-02-14T04:48:10.426Z,8.23
2024-02-14T04:53:13.237Z,8.10
2024-02-14T04:58:16.293Z,5.90
2024-02-14T05:03:19.820Z,6.30
2024-02-14T05:08:23.301Z,6.83
2024-02-14T05:13:26.602Z,6.43
2024-02-14T05:18:29.630Z,6.40
2024-02-14T05:23:32.913Z,6.43
2024-02-14T05:28:36.028Z,6.83
2024-02-14T05:33:39.332Z,6.87
2024-02-14T05:38:42.416Z,8.03
2024-02-14T05:43:45.233Z,8.60
2024-02-14T05:48:49.734Z,9.10
2024-02-14T05:53:52.679Z,7.63
2024-02-14T05:58:55.691Z,6.00
2024-02-14T06:03:58.739Z,5.93
2024-02-14T06:09:01.988Z,5.87
2024-02-14T06:14:04.930Z,4.80
2024-02-14T06:19:08.302Z,4.77
2024-02-14T06:24:14.939Z,4.80
2024-02-14T06:29:18.385Z,3.80
2024-02-14T06:34:21.506Z,3.03
2024-02-14T06:39:24.782Z,4.03
2024-02-14T06:44:27.969Z,3.97
2024-02-14T06:49:31.175Z,4.93
2024-02-14T06:54:34.835Z,5.97
2024-02-14T06:59:39.469Z,6.00
2024-02-14T07:04:42.978Z,5.07
2024-02-14T07:09:46.523Z,5.17
2024-02-14T07:14:49.946Z,9.63
2024-02-14T07:19:53.305Z,9.43
2024-02-14T07:24:56.514Z,8.53
2024-02-14T07:30:00.019Z,8.07
2024-02-14T07:35:04.320Z,6.73
2024-02-14T07:40:08.920Z,6.17
2024-02-14T07:45:13.323Z,5.93
2024-02-14T07:50:17.349Z,8.67
2024-02-14T07:55:21.722Z,9.57
2024-02-14T08:00:25.253Z,11.00
2024-02-14T08:05:28.942Z,8.57
2024-02-14T08:10:33.095Z,8.17
2024-02-14T08:15:39.045Z,9.03
2024-02-14T08:20:43.666Z,8.60
2024-02-14T08:25:48.116Z,9.13
2024-02-14T08:30:53.318Z,11.17
2024-02-14T08:35:59.128Z,9.70
2024-02-14T08:41:06.523Z,10.60
2024-02-14T08:46:13.849Z,10.90
2024-02-14T08:51:18.608Z,11.23
2024-02-14T08:56:23.885Z,11.27
2024-02-14T09:01:28.079Z,10.40
2024-02-14T09:06:34.210Z,12.43
2024-02-14T09:11:39.919Z,12.07
2024-02-14T09:16:43.509Z,10.50
2024-02-14T09:21:46.884Z,12.13
2024-02-14T09:26:50.478Z,10.80
2024-02-14T09:31:54.527Z,10.60
2024-02-14T09:36:59.961Z,10.20
2024-02-14T09:42:09.044Z,12.43
2024-02-14T09:47:12.857Z,9.93
2024-02-14T09:52:17.221Z,11.07
2024-02-14T09:57:21.078Z,9.83
2024-02-14T10:02:24.379Z,10.30
2024-02-14T10:07:28.076Z,10.60
2024-02-14T10:12:31.454Z,9.87
2024-02-14T10:17:35.954Z,6.87
2024-02-14T10:22:40.181Z,9.33
2024-02-14T10:27:44.045Z,8.60
2024-02-14T10:32:50.078Z,7.90
2024-02-14T10:37:54.572Z,7.67
2024-02-14T10:42:59.803Z,8.10
2024-02-14T10:48:05.739Z,8.80
2024-02-14T10:53:14.483Z,7.30
2024-02-14T10:58:20.790Z,7.27
2024-02-14T11:03:24.890Z,6.17
2024-02-14T11:08:33.719Z,7.33
2024-02-14T11:13:37.283Z,7.20
2024-02-14T11:18:41.209Z,8.60
2024-02-14T11:23:55.665Z,7.30
2024-02-14T11:29:05.410Z,7.43
2024-02-14T11:34:10.483Z,7.60
2024-02-14T11:39:19.820Z,6.23
2024-02-14T11:44:27.409Z,7.33
2024-02-14T11:49:30.904Z,6.70
2024-02-14T11:54:34.716Z,5.40
2024-02-14T11:59:37.844Z,5.87
2024-02-14T12:04:41.565Z,5.23
2024-02-14T12:09:45.165Z,4.30
2024-02-14T12:14:51.047Z,5.60
2024-02-14T12:19:54.749Z,5.57
2024-02-14T12:24:59.159Z,5.50
2024-02-14T12:30:08.566Z,5.20
2024-02-14T12:35:12.683Z,5.57
2024-02-14T12:40:16.175Z,6.87
2024-02-14T12:45:20.567Z,5.80
2024-02-14T12:50:24.311Z,5.67
2024-02-14T12:55:29.896Z,7.50
2024-02-14T13:00:34.063Z,6.17
2024-02-14T13:05:37.620Z,6.47
2024-02-14T13:10:41.124Z,7.77
2024-02-14T13:15:46.429Z,6.23
2024-02-14T13:20:51.990Z,6.10
2024-02-14T13:25:55.602Z,6.13
2024-02-14T13:30:58.732Z,5.20
2024-02-14T13:36:02.075Z,5.87
2024-02-14T13:41:05.617Z,5.30
2024-02-14T13:46:10.753Z,5.80
2024-02-14T13:51:13.879Z,6.17
2024-02-14T13:56:22.842Z,5.40
2024-02-14T14:01:28.005Z,7.10
2024-02-14T14:06:32.034Z,6.17
2024-02-14T14:11:35.550Z,5.23
2024-02-14T14:16:38.697Z,5.93
2024-02-14T14:21:42.108Z,6.37
2024-02-14T14:26:45.296Z,7.33
2024-02-14T14:31:48.489Z,6.27
2024-02-14T14:36:51.522Z,6.37
2024-02-14T14:41:58.570Z,8.60
2024-02-14T14:47:02.246Z,12.37
2024-02-14T14:52:06.095Z,16.73
2024-02-14T14:57:15.746Z,14.00
2024-02-14T15:02:19.427Z,12.33
2024-02-14T15:07:22.617Z,13.03
2024-02-14T15:12:28.284Z,12.73
2024-02-14T15:17:31.875Z,11.83
2024-02-14T15:22:35.416Z,13.10
2024-02-14T15:27:45.469Z,13.33
2024-02-14T15:33:07.488Z,19.87
2024-02-14T15:38:10.774Z,13.77
2024-02-14T15:43:14.533Z,9.97
2024-02-14T15:48:17.890Z,9.27
2024-02-14T15:53:21.958Z,8.00
2024-02-14T15:58:27.786Z,8.80
2024-02-14T16:03:31.375Z,8.63
2024-02-14T16:08:34.908Z,8.63
2024-02-14T16:13:38.113Z,7.07
2024-02-14T16:18:41.789Z,6.90
2024-02-14T16:23:45.474Z,7.73
2024-02-14T16:28:49.123Z,9.87
2024-02-14T16:33:52.905Z,12.77
2024-02-14T16:38:56.304Z,12.33
2024-02-14T16:43:59.536Z,9.53
2024-02-14T16:49:04.938Z,7.57
2024-02-14T16:54:08.127Z,7.57
2024-02-14T16:59:12.042Z,6.47
2024-02-14T17:04:15.222Z,6.07
2024-02-14T17:09:19.070Z,6.87
2024-02-14T17:14:27.860Z,6.50
2024-02-14T17:19:31.069Z,7.17
2024-02-14T17:24:34.369Z,7.20
2024-02-14T17:29:38.104Z,6.37
2024-02-14T17:34:42.682Z,6.60
2024-02-14T17:39:46.125Z,6.53
2024-02-14T17:44:50.495Z,8.57
2024-02-14T17:49:57.280Z,7.63
2024-02-14T17:55:03.178Z,7.63
2024-02-14T18:00:07.983Z,6.60
2024-02-14T18:05:12.029Z,4.53
2024-02-14T18:10:16.056Z,5.17
2024-02-14T18:15:20.045Z,6.13
2024-02-14T18:20:23.400Z,6.33
2024-02-14T18:25:26.611Z,6.00
2024-02-14T18:30:34.505Z,6.07
2024-02-14T18:35:39.153Z,6.63
2024-02-14T18:40:43.164Z,7.87
2024-02-14T18:45:46.578Z,8.43
2024-02-14T18:50:49.849Z,7.77
2024-02-14T18:55:53.354Z,6.10
2024-02-14T19:00:57.203Z,5.77
2024-02-14T19:06:01.085Z,6.93
2024-02-14T19:11:05.942Z,10.20
2024-02-14T19:16:16.664Z,8.13
2024-02-14T19:21:28.654Z,7.83
2024-02-14T19:26:32.851Z,14.47
2024-02-14T19:31:36.902Z,16.70
2024-02-14T19:36:41.481Z,11.37
2024-02-14T19:41:46.709Z,16.37
2024-02-14T19:46:52.329Z,13.30
2024-02-14T19:51:56.784Z,14.90
2024-02-14T19:57:01.170Z,11.83
2024-02-14T20:02:05.763Z,9.87
2024-02-14T20:07:10.213Z,12.30
2024-02-14T20:12:14.112Z,7.53
2024-02-14T20:17:18.292Z,8.07
2024-02-14T20:22:24.839Z,6.97
2024-02-14T20:27:29.417Z,9.70
2024-02-14T20:32:34.454Z,8.80
2024-02-14T20:37:40.572Z,9.00
2024-02-14T20:42:45.543Z,9.73
2024-02-14T20:47:50.163Z,8.33
2024-02-14T20:52:55.780Z,7.17
2024-02-14T20:58:00.513Z,8.40
2024-02-14T21:03:05.646Z,7.77
2024-02-14T21:08:10.523Z,7.57
2024-02-14T21:13:17.912Z,8.23
2024-02-14T21:18:22.320Z,7.83
2024-02-14T21:23:26.288Z,6.60
2024-02-14T21:28:30.238Z,7.27
2024-02-14T21:33:37.481Z,7.83
2024-02-14T21:38:43.085Z,7.67
2024-02-14T21:43:46.434Z,7.10
2024-02-14T21:48:53.444Z,6.90
2024-02-14T21:53:57.206Z,7.00
2024-02-14T21:59:04.074Z,7.73
2024-02-14T22:04:07.409Z,8.37
2024-02-14T22:09:11.150Z,7.93
2024-02-14T22:14:14.516Z,8.00
2024-02-14T22:19:17.781Z,9.50
2024-02-14T22:24:22.010Z,9.93
2024-02-14T22:29:25.699Z,10.53
2024-02-14T22:34:28.827Z,9.63
2024-02-14T22:39:32.061Z,10.00
2024-02-14T22:44:38.128Z,10.87
2024-02-14T22:49:44.153Z,9.27
2024-02-14T22:54:47.391Z,10.17
2024-02-14T22:59:50.588Z,10.57
2024-02-14T23:04:53.931Z,11.23
2024-02-14T23:09:57.732Z,10.10
2024-02-14T23:15:01.386Z,10.17
2024-02-14T23:20:07.831Z,10.47
2024-02-14T23:25:14.097Z,12.43
2024-02-14T23:30:19.324Z,11.27
2024-02-14T23:35:23.807Z,11.40
2024-02-14T23:40:26.893Z,11.93
2024-02-14T23:45:29.918Z,11.27
2024-02-14T23:50:32.981Z,12.53
2024-02-14T23:55:37.865Z,13.10
